sensor_id;sensor_type;location;lat;lon;timestamp;P1;durP1;ratioP1;P2;durP2;ratioP2
76393;SDS011;65216;51.090;-115.352;2022-12-13T00:01:56;12.90;;;3.20;;
76393;SDS011;65216;51.090;-115.352;2022-12-13T00:04:26;15.30;;;3.80;;
76393;SDS011;65216;51.090;-115.352;2022-12-13T00:06:53;12.90;;;3.70;;
76393;SDS011;65216;51.090;-115.352;2022-12-13T00:09:24;19.90;;;4.10;;
76393;SDS011;65216;51.090;-115.352;2022-12-13T00:11:52;10.30;;;3.10;;
76393;SDS011;65216;51.090;-115.352;2022-12-13T00:14:25;17.40;;;3.40;;
76393;SDS011;65216;51.090;-115.352;2022-12-13T00:16:52;14.00;;;3.20;;
76393;SDS011;65216;51.090;-115.352;2022-12-13T00:19:23;14.00;;;3.80;;
76393;SDS011;65216;51.090;-115.352;2022-12-13T00:21:51;13.10;;;3.80;;
76393;SDS011;65216;51.090;-115.352;2022-12-13T00:24:23;17.80;;;3.70;;
76393;SDS011;65216;51.090;-115.352;2022-12-13T00:26:53;12.30;;;3.40;;
76393;SDS011;65216;51.090;-115.352;2022-12-13T00:29:21;21.40;;;3.80;;
76393;SDS011;65216;51.090;-115.352;2022-12-13T00:31:49;15.70;;;3.90;;
76393;SDS011;65216;51.090;-115.352;2022-12-13T00:34:16;20.20;;;3.90;;
76393;SDS011;65216;51.090;-115.352;2022-12-13T00:36:44;17.40;;;3.80;;
76393;SDS011;65216;51.090;-115.352;2022-12-13T00:39:11;23.00;;;3.60;;
76393;SDS011;65216;51.090;-115.352;2022-12-13T00:41:42;15.50;;;3.90;;
76393;SDS011;65216;51.090;-115.352;2022-12-13T00:44:13;19.30;;;3.80;;
76393;SDS011;65216;51.090;-115.352;2022-12-13T00:46:41;14.80;;;3.40;;
76393;SDS011;65216;51.090;-115.352;2022-12-13T00:49:10;17.60;;;4.10;;
76393;SDS011;65216;51.090;-115.352;2022-12-13T00:51:39;25.60;;;4.20;;
76393;SDS011;65216;51.090;-115.352;2022-12-13T00:54:06;19.70;;;3.70;;
76393;SDS011;65216;51.090;-115.352;2022-12-13T00:56:36;14.70;;;3.70;;
76393;SDS011;65216;51.090;-115.352;2022-12-13T00:59:06;19.00;;;3.80;;
76393;SDS011;65216;51.090;-115.352;2022-12-13T01:01:38;17.20;;;3.60;;
76393;SDS011;65216;51.090;-115.352;2022-12-13T01:04:06;17.70;;;3.40;;
76393;SDS011;65216;51.090;-115.352;2022-12-13T01:09:09;17.00;;;3.40;;
76393;SDS011;65216;51.090;-115.352;2022-12-13T01:11:47;22.90;;;4.00;;
76393;SDS011;65216;51.090;-115.352;2022-12-13T01:14:17;16.10;;;3.50;;
76393;SDS011;65216;51.090;-115.352;2022-12-13T01:16:46;20.20;;;3.40;;
76393;SDS011;65216;51.090;-115.352;2022-12-13T01:19:25;24.90;;;3.60;;
76393;SDS011;65216;51.090;-115.352;2022-12-13T01:21:58;14.40;;;3.10;;
76393;SDS011;65216;51.090;-115.352;2022-12-13T01:24:28;20.30;;;3.50;;
76393;SDS011;65216;51.090;-115.352;2022-12-13T01:26:57;18.40;;;3.40;;
76393;SDS011;65216;51.090;-115.352;2022-12-13T01:29:30;21.80;;;3.60;;
76393;SDS011;65216;51.090;-115.352;2022-12-13T01:31:57;17.50;;;3.30;;
76393;SDS011;65216;51.090;-115.352;2022-12-13T01:34:25;18.10;;;3.40;;
76393;SDS011;65216;51.090;-115.352;2022-12-13T01:36:55;18.90;;;3.50;;
76393;SDS011;65216;51.090;-115.352;2022-12-13T01:39:23;21.40;;;3.30;;
76393;SDS011;65216;51.090;-115.352;2022-12-13T01:41:53;25.90;;;3.80;;
76393;SDS011;65216;51.090;-115.352;2022-12-13T01:47:33;26.20;;;4.00;;
76393;SDS011;65216;51.090;-115.352;2022-12-13T01:50:12;17.60;;;3.80;;
76393;SDS011;65216;51.090;-115.352;2022-12-13T01:52:46;23.80;;;3.50;;
76393;SDS011;65216;51.090;-115.352;2022-12-13T01:55:15;20.10;;;3.70;;
76393;SDS011;65216;51.090;-115.352;2022-12-13T01:57:49;19.80;;;3.80;;
76393;SDS011;65216;51.090;-115.352;2022-12-13T02:00:24;29.40;;;4.00;;
76393;SDS011;65216;51.090;-115.352;2022-12-13T02:02:53;18.70;;;3.40;;
76393;SDS011;65216;51.090;-115.352;2022-12-13T02:05:35;24.90;;;3.60;;
76393;SDS011;65216;51.090;-115.352;2022-12-13T02:08:08;20.00;;;3.70;;
76393;SDS011;65216;51.090;-115.352;2022-12-13T02:10:42;22.10;;;4.20;;
76393;SDS011;65216;51.090;-115.352;2022-12-13T02:25:30;26.10;;;4.00;;
76393;SDS011;65216;51.090;-115.352;2022-12-13T02:29:01;30.10;;;4.30;;
76393;SDS011;65216;51.090;-115.352;2022-12-13T02:32:16;20.70;;;3.70;;
76393;SDS011;65216;51.090;-115.352;2022-12-13T02:43:53;30.60;;;3.80;;
76393;SDS011;65216;51.090;-115.352;2022-12-13T02:46:47;28.80;;;3.90;;
76393;SDS011;65216;51.090;-115.352;2022-12-13T02:49:41;25.30;;;3.50;;
76393;SDS011;65216;51.090;-115.352;2022-12-13T02:52:14;23.60;;;3.70;;
76393;SDS011;65216;51.090;-115.352;2022-12-13T02:54:43;21.10;;;3.70;;
76393;SDS011;65216;51.090;-115.352;2022-12-13T02:57:39;29.50;;;4.20;;
76393;SDS011;65216;51.090;-115.352;2022-12-13T03:00:14;24.60;;;3.50;;
76393;SDS011;65216;51.090;-115.352;2022-12-13T03:03:14;24.00;;;3.40;;
76393;SDS011;65216;51.090;-115.352;2022-12-13T03:20:50;21.40;;;3.50;;
76393;SDS011;65216;51.090;-115.352;2022-12-13T03:23:20;24.50;;;3.60;;
76393;SDS011;65216;51.090;-115.352;2022-12-13T03:25:52;21.00;;;3.90;;
76393;SDS011;65216;51.090;-115.352;2022-12-13T03:28:24;23.50;;;3.50;;
76393;SDS011;65216;51.090;-115.352;2022-12-13T03:30:55;23.20;;;4.00;;
76393;SDS011;65216;51.090;-115.352;2022-12-13T03:33:25;23.90;;;3.70;;
76393;SDS011;65216;51.090;-115.352;2022-12-13T03:35:55;18.50;;;3.10;;
76393;SDS011;65216;51.090;-115.352;2022-12-13T03:38:23;22.60;;;3.30;;
76393;SDS011;65216;51.090;-115.352;2022-12-13T03:41:04;23.50;;;3.90;;
76393;SDS011;65216;51.090;-115.352;2022-12-13T03:43:43;19.50;;;3.30;;
76393;SDS011;65216;51.090;-115.352;2022-12-13T03:46:11;25.80;;;3.80;;
76393;SDS011;65216;51.090;-115.352;2022-12-13T03:48:39;23.80;;;3.20;;
76393;SDS011;65216;51.090;-115.352;2022-12-13T03:51:06;14.40;;;3.00;;
76393;SDS011;65216;51.090;-115.352;2022-12-13T03:53:36;18.30;;;3.70;;
76393;SDS011;65216;51.090;-115.352;2022-12-13T03:56:08;22.20;;;3.30;;
76393;SDS011;65216;51.090;-115.352;2022-12-13T03:58:38;23.90;;;3.60;;
76393;SDS011;65216;51.090;-115.352;2022-12-13T04:01:13;17.00;;;3.60;;
76393;SDS011;65216;51.090;-115.352;2022-12-13T04:03:44;19.60;;;3.20;;
76393;SDS011;65216;51.090;-115.352;2022-12-13T04:06:13;20.40;;;3.50;;
76393;SDS011;65216;51.090;-115.352;2022-12-13T04:08:41;15.80;;;3.60;;
76393;SDS011;65216;51.090;-115.352;2022-12-13T04:11:11;15.10;;;3.00;;
76393;SDS011;65216;51.090;-115.352;2022-12-13T04:13:57;13.30;;;2.90;;
76393;SDS011;65216;51.090;-115.352;2022-12-13T04:16:25;13.90;;;3.20;;
76393;SDS011;65216;51.090;-115.352;2022-12-13T04:18:52;20.10;;;3.10;;
76393;SDS011;65216;51.090;-115.352;2022-12-13T04:21:19;16.80;;;2.70;;
76393;SDS011;65216;51.090;-115.352;2022-12-13T04:23:47;20.60;;;3.00;;
76393;SDS011;65216;51.090;-115.352;2022-12-13T04:26:14;25.00;;;2.80;;
76393;SDS011;65216;51.090;-115.352;2022-12-13T04:28:42;11.80;;;2.30;;
76393;SDS011;65216;51.090;-115.352;2022-12-13T04:31:13;16.20;;;3.30;;
76393;SDS011;65216;51.090;-115.352;2022-12-13T04:33:43;9.40;;;2.60;;
76393;SDS011;65216;51.090;-115.352;2022-12-13T04:36:10;11.00;;;2.70;;
76393;SDS011;65216;51.090;-115.352;2022-12-13T04:38:47;11.00;;;2.60;;
76393;SDS011;65216;51.090;-115.352;2022-12-13T04:41:18;14.60;;;2.80;;
76393;SDS011;65216;51.090;-115.352;2022-12-13T04:43:54;13.60;;;2.80;;
76393;SDS011;65216;51.090;-115.352;2022-12-13T04:46:22;11.90;;;2.30;;
76393;SDS011;65216;51.090;-115.352;2022-12-13T04:48:52;11.50;;;2.60;;
76393;SDS011;65216;51.090;-115.352;2022-12-13T04:51:19;14.30;;;2.60;;
76393;SDS011;65216;51.090;-115.352;2022-12-13T04:53:47;11.60;;;2.40;;
76393;SDS011;65216;51.090;-115.352;2022-12-13T04:56:17;11.90;;;2.60;;
76393;SDS011;65216;51.090;-115.352;2022-12-13T04:58:44;11.70;;;2.20;;
76393;SDS011;65216;51.090;-115.352;2022-12-13T05:01:12;10.10;;;2.30;;
76393;SDS011;65216;51.090;-115.352;2022-12-13T05:03:39;9.70;;;2.10;;
76393;SDS011;65216;51.090;-115.352;2022-12-13T05:06:08;9.70;;;1.80;;
76393;SDS011;65216;51.090;-115.352;2022-12-13T05:08:40;9.20;;;1.80;;
76393;SDS011;65216;51.090;-115.352;2022-12-13T05:11:09;8.00;;;2.00;;
76393;SDS011;65216;51.090;-115.352;2022-12-13T05:13:37;8.40;;;2.00;;
76393;SDS011;65216;51.090;-115.352;2022-12-13T05:16:08;9.00;;;1.80;;
76393;SDS011;65216;51.090;-115.352;2022-12-13T05:18:41;5.70;;;1.70;;
76393;SDS011;65216;51.090;-115.352;2022-12-13T05:21:10;5.30;;;1.90;;
76393;SDS011;65216;51.090;-115.352;2022-12-13T05:23:38;4.20;;;1.60;;
76393;SDS011;65216;51.090;-115.352;2022-12-13T05:26:05;4.20;;;1.50;;
76393;SDS011;65216;51.090;-115.352;2022-12-13T05:28:35;5.40;;;1.60;;
76393;SDS011;65216;51.090;-115.352;2022-12-13T05:31:12;6.30;;;1.60;;
76393;SDS011;65216;51.090;-115.352;2022-12-13T05:33:39;5.30;;;1.60;;
76393;SDS011;65216;51.090;-115.352;2022-12-13T05:36:10;5.70;;;1.40;;
76393;SDS011;65216;51.090;-115.352;2022-12-13T05:38:37;2.70;;;1.30;;
76393;SDS011;65216;51.090;-115.352;2022-12-13T05:41:14;4.60;;;1.20;;
76393;SDS011;65216;51.090;-115.352;2022-12-13T05:43:47;5.90;;;1.50;;
76393;SDS011;65216;51.090;-115.352;2022-12-13T05:46:14;3.60;;;1.40;;
76393;SDS011;65216;51.090;-115.352;2022-12-13T05:48:42;3.00;;;1.30;;
76393;SDS011;65216;51.090;-115.352;2022-12-13T05:51:09;4.10;;;1.10;;
76393;SDS011;65216;51.090;-115.352;2022-12-13T05:53:39;3.50;;;1.10;;
76393;SDS011;65216;51.090;-115.352;2022-12-13T05:56:08;1.70;;;0.90;;
76393;SDS011;65216;51.090;-115.352;2022-12-13T05:58:42;3.00;;;1.20;;
76393;SDS011;65216;51.090;-115.352;2022-12-13T06:03:42;3.40;;;1.00;;
76393;SDS011;65216;51.090;-115.352;2022-12-13T06:06:10;2.50;;;1.00;;
76393;SDS011;65216;51.090;-115.352;2022-12-13T06:08:43;3.20;;;0.70;;
76393;SDS011;65216;51.090;-115.352;2022-12-13T06:11:11;2.20;;;1.00;;
76393;SDS011;65216;51.090;-115.352;2022-12-13T06:13:42;1.30;;;1.00;;
76393;SDS011;65216;51.090;-115.352;2022-12-13T06:16:15;2.00;;;0.90;;
76393;SDS011;65216;51.090;-115.352;2022-12-13T06:18:45;1.60;;;0.80;;
76393;SDS011;65216;51.090;-115.352;2022-12-13T06:21:15;2.10;;;0.80;;
76393;SDS011;65216;51.090;-115.352;2022-12-13T06:23:43;2.20;;;1.10;;
76393;SDS011;65216;51.090;-115.352;2022-12-13T06:26:14;2.40;;;1.00;;
76393;SDS011;65216;51.090;-115.352;2022-12-13T06:28:41;1.80;;;0.80;;
76393;SDS011;65216;51.090;-115.352;2022-12-13T06:31:11;2.50;;;0.90;;
76393;SDS011;65216;51.090;-115.352;2022-12-13T06:33:39;2.30;;;0.90;;
76393;SDS011;65216;51.090;-115.352;2022-12-13T06:36:09;2.00;;;1.00;;
76393;SDS011;65216;51.090;-115.352;2022-12-13T06:38:43;1.10;;;0.70;;
76393;SDS011;65216;51.090;-115.352;2022-12-13T06:41:15;1.30;;;0.90;;
76393;SDS011;65216;51.090;-115.352;2022-12-13T06:43:47;1.40;;;0.70;;
76393;SDS011;65216;51.090;-115.352;2022-12-13T06:46:14;2.80;;;0.90;;
76393;SDS011;65216;51.090;-115.352;2022-12-13T06:48:44;1.30;;;0.80;;
76393;SDS011;65216;51.090;-115.352;2022-12-13T06:51:18;1.20;;;0.70;;
76393;SDS011;65216;51.090;-115.352;2022-12-13T06:53:45;1.20;;;0.80;;
76393;SDS011;65216;51.090;-115.352;2022-12-13T06:56:13;1.40;;;0.70;;
76393;SDS011;65216;51.090;-115.352;2022-12-13T06:58:44;1.70;;;0.80;;
76393;SDS011;65216;51.090;-115.352;2022-12-13T07:01:18;1.10;;;0.70;;
76393;SDS011;65216;51.090;-115.352;2022-12-13T07:03:45;1.40;;;0.70;;
76393;SDS011;65216;51.090;-115.352;2022-12-13T07:06:18;1.50;;;0.80;;
76393;SDS011;65216;51.090;-115.352;2022-12-13T07:08:52;1.00;;;0.80;;
76393;SDS011;65216;51.090;-115.352;2022-12-13T07:11:26;1.50;;;0.70;;
76393;SDS011;65216;51.090;-115.352;2022-12-13T07:13:55;1.30;;;0.60;;
76393;SDS011;65216;51.090;-115.352;2022-12-13T07:16:23;2.30;;;0.80;;
76393;SDS011;65216;51.090;-115.352;2022-12-13T07:18:57;1.50;;;0.60;;
76393;SDS011;65216;51.090;-115.352;2022-12-13T07:21:26;1.20;;;0.70;;
76393;SDS011;65216;51.090;-115.352;2022-12-13T07:23:57;0.80;;;0.50;;
76393;SDS011;65216;51.090;-115.352;2022-12-13T07:26:27;1.10;;;0.60;;
76393;SDS011;65216;51.090;-115.352;2022-12-13T07:28:55;1.20;;;0.60;;
76393;SDS011;65216;51.090;-115.352;2022-12-13T07:31:27;1.00;;;0.60;;
76393;SDS011;65216;51.090;-115.352;2022-12-13T07:34:02;1.50;;;0.80;;
76393;SDS011;65216;51.090;-115.352;2022-12-13T07:36:29;0.60;;;0.60;;
76393;SDS011;65216;51.090;-115.352;2022-12-13T07:38:57;1.10;;;0.60;;
76393;SDS011;65216;51.090;-115.352;2022-12-13T07:41:25;1.30;;;0.60;;
76393;SDS011;65216;51.090;-115.352;2022-12-13T07:43:55;1.80;;;0.70;;
76393;SDS011;65216;51.090;-115.352;2022-12-13T07:46:26;1.40;;;0.70;;
76393;SDS011;65216;51.090;-115.352;2022-12-13T07:48:54;0.80;;;0.40;;
76393;SDS011;65216;51.090;-115.352;2022-12-13T07:51:21;1.30;;;0.70;;
76393;SDS011;65216;51.090;-115.352;2022-12-13T07:53:52;1.70;;;0.60;;
76393;SDS011;65216;51.090;-115.352;2022-12-13T07:56:22;0.50;;;0.40;;
76393;SDS011;65216;51.090;-115.352;2022-12-13T07:58:52;1.20;;;0.60;;
76393;SDS011;65216;51.090;-115.352;2022-12-13T08:01:23;1.00;;;0.60;;
76393;SDS011;65216;51.090;-115.352;2022-12-13T08:03:50;0.90;;;0.60;;
76393;SDS011;65216;51.090;-115.352;2022-12-13T08:06:18;0.80;;;0.40;;
76393;SDS011;65216;51.090;-115.352;2022-12-13T08:08:45;0.60;;;0.40;;
76393;SDS011;65216;51.090;-115.352;2022-12-13T08:11:16;1.40;;;0.50;;
76393;SDS011;65216;51.090;-115.352;2022-12-13T08:13:46;0.70;;;0.50;;
76393;SDS011;65216;51.090;-115.352;2022-12-13T08:16:16;0.60;;;0.50;;
76393;SDS011;65216;51.090;-115.352;2022-12-13T08:18:47;1.00;;;0.60;;
76393;SDS011;65216;51.090;-115.352;2022-12-13T08:21:17;0.80;;;0.50;;
76393;SDS011;65216;51.090;-115.352;2022-12-13T08:23:45;1.20;;;0.60;;
76393;SDS011;65216;51.090;-115.352;2022-12-13T08:26:12;0.90;;;0.30;;
76393;SDS011;65216;51.090;-115.352;2022-12-13T08:28:39;1.00;;;0.50;;
76393;SDS011;65216;51.090;-115.352;2022-12-13T08:31:10;0.50;;;0.40;;
76393;SDS011;65216;51.090;-115.352;2022-12-13T08:33:38;0.30;;;0.30;;
76393;SDS011;65216;51.090;-115.352;2022-12-13T08:36:13;0.90;;;0.50;;
76393;SDS011;65216;51.090;-115.352;2022-12-13T08:38:45;0.50;;;0.40;;
76393;SDS011;65216;51.090;-115.352;2022-12-13T08:41:15;0.80;;;0.30;;
76393;SDS011;65216;51.090;-115.352;2022-12-13T08:43:43;0.50;;;0.50;;
76393;SDS011;65216;51.090;-115.352;2022-12-13T08:46:13;0.90;;;0.30;;
76393;SDS011;65216;51.090;-115.352;2022-12-13T08:48:43;0.90;;;0.40;;
76393;SDS011;65216;51.090;-115.352;2022-12-13T08:51:15;0.40;;;0.40;;
76393;SDS011;65216;51.090;-115.352;2022-12-13T08:53:51;0.60;;;0.40;;
76393;SDS011;65216;51.090;-115.352;2022-12-13T08:56:22;0.60;;;0.40;;
76393;SDS011;65216;51.090;-115.352;2022-12-13T08:58:53;1.10;;;0.50;;
76393;SDS011;65216;51.090;-115.352;2022-12-13T09:01:26;0.50;;;0.20;;
76393;SDS011;65216;51.090;-115.352;2022-12-13T09:03:57;0.70;;;0.40;;
76393;SDS011;65216;51.090;-115.352;2022-12-13T09:06:31;0.90;;;0.50;;
76393;SDS011;65216;51.090;-115.352;2022-12-13T09:08:58;0.90;;;0.40;;
76393;SDS011;65216;51.090;-115.352;2022-12-13T09:11:28;0.70;;;0.50;;
76393;SDS011;65216;51.090;-115.352;2022-12-13T09:13:56;0.30;;;0.30;;
76393;SDS011;65216;51.090;-115.352;2022-12-13T09:16:26;0.90;;;0.30;;
76393;SDS011;65216;51.090;-115.352;2022-12-13T09:18:55;0.30;;;0.30;;
76393;SDS011;65216;51.090;-115.352;2022-12-13T09:21:22;0.50;;;0.30;;
76393;SDS011;65216;51.090;-115.352;2022-12-13T09:26:25;0.40;;;0.30;;
76393;SDS011;65216;51.090;-115.352;2022-12-13T09:28:55;0.90;;;0.50;;
76393;SDS011;65216;51.090;-115.352;2022-12-13T09:31:23;0.70;;;0.20;;
76393;SDS011;65216;51.090;-115.352;2022-12-13T09:33:53;0.50;;;0.30;;
76393;SDS011;65216;51.090;-115.352;2022-12-13T09:36:24;0.30;;;0.30;;
76393;SDS011;65216;51.090;-115.352;2022-12-13T09:38:51;0.90;;;0.20;;
76393;SDS011;65216;51.090;-115.352;2022-12-13T09:44:23;0.50;;;0.40;;
76393;SDS011;65216;51.090;-115.352;2022-12-13T09:46:57;0.50;;;0.40;;
76393;SDS011;65216;51.090;-115.352;2022-12-13T09:49:40;0.20;;;0.20;;
76393;SDS011;65216;51.090;-115.352;2022-12-13T09:52:14;0.40;;;0.20;;
76393;SDS011;65216;51.090;-115.352;2022-12-13T09:54:52;0.70;;;0.20;;
76393;SDS011;65216;51.090;-115.352;2022-12-13T09:57:31;0.60;;;0.20;;
76393;SDS011;65216;51.090;-115.352;2022-12-13T10:00:11;1.10;;;0.40;;
76393;SDS011;65216;51.090;-115.352;2022-12-13T10:02:46;0.70;;;0.20;;
76393;SDS011;65216;51.090;-115.352;2022-12-13T10:05:37;0.70;;;0.40;;
76393;SDS011;65216;51.090;-115.352;2022-12-13T10:08:30;0.40;;;0.30;;
76393;SDS011;65216;51.090;-115.352;2022-12-13T10:11:05;0.50;;;0.30;;
76393;SDS011;65216;51.090;-115.352;2022-12-13T10:13:44;0.70;;;0.30;;
76393;SDS011;65216;51.090;-115.352;2022-12-13T10:22:11;2.40;;;0.40;;
76393;SDS011;65216;51.090;-115.352;2022-12-13T10:24:57;0.40;;;0.30;;
76393;SDS011;65216;51.090;-115.352;2022-12-13T10:27:47;1.10;;;0.40;;
76393;SDS011;65216;51.090;-115.352;2022-12-13T10:30:19;0.30;;;0.20;;
76393;SDS011;65216;51.090;-115.352;2022-12-13T10:35:32;3.30;;;0.50;;
76393;SDS011;65216;51.090;-115.352;2022-12-13T10:40:40;0.20;;;0.20;;
76393;SDS011;65216;51.090;-115.352;2022-12-13T10:45:42;0.70;;;0.30;;
76393;SDS011;65216;51.090;-115.352;2022-12-13T10:48:35;0.80;;;0.20;;
76393;SDS011;65216;51.090;-115.352;2022-12-13T10:51:05;0.70;;;0.30;;
76393;SDS011;65216;51.090;-115.352;2022-12-13T10:53:56;5.20;;;0.70;;
76393;SDS011;65216;51.090;-115.352;2022-12-13T10:56:48;2.50;;;0.50;;
76393;SDS011;65216;51.090;-115.352;2022-12-13T10:59:38;3.90;;;0.60;;
76393;SDS011;65216;51.090;-115.352;2022-12-13T11:02:34;1.60;;;0.50;;
76393;SDS011;65216;51.090;-115.352;2022-12-13T11:05:25;2.50;;;0.60;;
76393;SDS011;65216;51.090;-115.352;2022-12-13T11:08:12;5.00;;;1.10;;
76393;SDS011;65216;51.090;-115.352;2022-12-13T11:10:44;5.10;;;0.80;;
76393;SDS011;65216;51.090;-115.352;2022-12-13T11:13:23;6.40;;;1.30;;
76393;SDS011;65216;51.090;-115.352;2022-12-13T11:21:52;7.50;;;1.20;;
76393;SDS011;65216;51.090;-115.352;2022-12-13T11:24:27;9.80;;;1.30;;
76393;SDS011;65216;51.090;-115.352;2022-12-13T11:30:35;5.00;;;1.00;;
76393;SDS011;65216;51.090;-115.352;2022-12-13T11:50:44;2.90;;;0.60;;
76393;SDS011;65216;51.090;-115.352;2022-12-13T11:53:47;2.30;;;0.50;;
76393;SDS011;65216;51.090;-115.352;2022-12-13T11:56:33;1.40;;;0.50;;
76393;SDS011;65216;51.090;-115.352;2022-12-13T12:02:19;2.20;;;0.70;;
76393;SDS011;65216;51.090;-115.352;2022-12-13T12:08:15;0.90;;;0.40;;
76393;SDS011;65216;51.090;-115.352;2022-12-13T12:17:02;1.80;;;0.30;;
76393;SDS011;65216;51.090;-115.352;2022-12-13T12:19:38;0.90;;;0.50;;
76393;SDS011;65216;51.090;-115.352;2022-12-13T12:31:57;0.70;;;0.30;;
76393;SDS011;65216;51.090;-115.352;2022-12-13T12:44:38;0.30;;;0.20;;
76393;SDS011;65216;51.090;-115.352;2022-12-13T12:50:28;0.40;;;0.30;;
76393;SDS011;65216;51.090;-115.352;2022-12-13T12:59:19;1.10;;;0.30;;
76393;SDS011;65216;51.090;-115.352;2022-12-13T13:02:13;0.20;;;0.10;;
76393;SDS011;65216;51.090;-115.352;2022-12-13T13:04:55;0.30;;;0.10;;
76393;SDS011;65216;51.090;-115.352;2022-12-13T13:07:41;0.70;;;0.20;;
76393;SDS011;65216;51.090;-115.352;2022-12-13T13:10:18;0.20;;;0.10;;
76393;SDS011;65216;51.090;-115.352;2022-12-13T13:12:47;1.50;;;0.40;;
76393;SDS011;65216;51.090;-115.352;2022-12-13T13:21:29;0.40;;;0.30;;
76393;SDS011;65216;51.090;-115.352;2022-12-13T13:26:41;0.20;;;0.20;;
76393;SDS011;65216;51.090;-115.352;2022-12-13T13:34:44;0.20;;;0.10;;
76393;SDS011;65216;51.090;-115.352;2022-12-13T13:46:07;0.80;;;0.30;;
76393;SDS011;65216;51.090;-115.352;2022-12-13T13:48:57;1.00;;;0.60;;
76393;SDS011;65216;51.090;-115.352;2022-12-13T14:01:34;0.80;;;0.30;;
76393;SDS011;65216;51.090;-115.352;2022-12-13T14:20:08;6.10;;;0.60;;
76393;SDS011;65216;51.090;-115.352;2022-12-13T14:22:49;8.50;;;1.10;;
76393;SDS011;65216;51.090;-115.352;2022-12-13T14:28:45;5.80;;;0.90;;
76393;SDS011;65216;51.090;-115.352;2022-12-13T14:34:05;6.80;;;0.90;;
76393;SDS011;65216;51.090;-115.352;2022-12-13T14:36:43;6.00;;;1.20;;
76393;SDS011;65216;51.090;-115.352;2022-12-13T14:39:33;10.90;;;1.30;;
76393;SDS011;65216;51.090;-115.352;2022-12-13T14:42:16;7.30;;;1.30;;
76393;SDS011;65216;51.090;-115.352;2022-12-13T14:44:49;7.30;;;1.30;;
76393;SDS011;65216;51.090;-115.352;2022-12-13T14:47:21;7.30;;;1.10;;
76393;SDS011;65216;51.090;-115.352;2022-12-13T14:49:53;6.90;;;1.10;;
76393;SDS011;65216;51.090;-115.352;2022-12-13T14:52:27;9.70;;;1.10;;
76393;SDS011;65216;51.090;-115.352;2022-12-13T14:55:01;6.00;;;1.20;;
76393;SDS011;65216;51.090;-115.352;2022-12-13T14:57:33;7.00;;;1.20;;
76393;SDS011;65216;51.090;-115.352;2022-12-13T15:00:21;10.10;;;1.00;;
76393;SDS011;65216;51.090;-115.352;2022-12-13T15:02:59;7.20;;;1.10;;
76393;SDS011;65216;51.090;-115.352;2022-12-13T15:05:42;4.10;;;0.90;;
76393;SDS011;65216;51.090;-115.352;2022-12-13T15:08:17;7.20;;;1.00;;
76393;SDS011;65216;51.090;-115.352;2022-12-13T15:10:56;3.40;;;0.70;;
76393;SDS011;65216;51.090;-115.352;2022-12-13T15:13:43;3.90;;;0.60;;
76393;SDS011;65216;51.090;-115.352;2022-12-13T15:16:26;6.70;;;0.90;;
76393;SDS011;65216;51.090;-115.352;2022-12-13T15:19:14;2.90;;;0.90;;
76393;SDS011;65216;51.090;-115.352;2022-12-13T15:22:00;5.20;;;0.80;;
76393;SDS011;65216;51.090;-115.352;2022-12-13T15:27:09;2.30;;;0.50;;
76393;SDS011;65216;51.090;-115.352;2022-12-13T15:29:38;1.90;;;0.40;;
76393;SDS011;65216;51.090;-115.352;2022-12-13T15:32:13;1.60;;;0.50;;
76393;SDS011;65216;51.090;-115.352;2022-12-13T15:34:51;1.60;;;0.50;;
76393;SDS011;65216;51.090;-115.352;2022-12-13T15:37:38;3.60;;;0.60;;
76393;SDS011;65216;51.090;-115.352;2022-12-13T15:40:11;1.80;;;0.50;;
76393;SDS011;65216;51.090;-115.352;2022-12-13T15:42:44;1.30;;;0.50;;
76393;SDS011;65216;51.090;-115.352;2022-12-13T15:45:24;3.60;;;0.70;;
76393;SDS011;65216;51.090;-115.352;2022-12-13T15:47:55;2.90;;;0.40;;
76393;SDS011;65216;51.090;-115.352;2022-12-13T15:50:36;2.40;;;0.40;;
76393;SDS011;65216;51.090;-115.352;2022-12-13T15:53:25;0.40;;;0.30;;
76393;SDS011;65216;51.090;-115.352;2022-12-13T15:55:57;5.10;;;0.70;;
76393;SDS011;65216;51.090;-115.352;2022-12-13T15:58:35;4.10;;;0.50;;
76393;SDS011;65216;51.090;-115.352;2022-12-13T16:01:03;5.70;;;0.80;;
76393;SDS011;65216;51.090;-115.352;2022-12-13T16:03:43;3.50;;;0.60;;
76393;SDS011;65216;51.090;-115.352;2022-12-13T16:06:19;2.10;;;0.60;;
76393;SDS011;65216;51.090;-115.352;2022-12-13T16:09:01;4.00;;;0.60;;
76393;SDS011;65216;51.090;-115.352;2022-12-13T16:11:38;2.00;;;0.40;;
76393;SDS011;65216;51.090;-115.352;2022-12-13T16:17:25;1.30;;;0.50;;
76393;SDS011;65216;51.090;-115.352;2022-12-13T16:19:56;3.20;;;0.60;;
76393;SDS011;65216;51.090;-115.352;2022-12-13T16:22:26;2.00;;;0.60;;
76393;SDS011;65216;51.090;-115.352;2022-12-13T16:24:56;2.30;;;0.50;;
76393;SDS011;65216;51.090;-115.352;2022-12-13T16:27:24;3.40;;;0.70;;
76393;SDS011;65216;51.090;-115.352;2022-12-13T16:29:52;2.90;;;0.50;;
76393;SDS011;65216;51.090;-115.352;2022-12-13T16:32:19;3.60;;;0.60;;
76393;SDS011;65216;51.090;-115.352;2022-12-13T16:34:50;6.30;;;1.10;;
76393;SDS011;65216;51.090;-115.352;2022-12-13T16:37:20;1.50;;;0.40;;
76393;SDS011;65216;51.090;-115.352;2022-12-13T16:39:52;8.10;;;0.80;;
76393;SDS011;65216;51.090;-115.352;2022-12-13T16:42:23;2.70;;;0.50;;
76393;SDS011;65216;51.090;-115.352;2022-12-13T16:44:50;4.80;;;0.80;;
76393;SDS011;65216;51.090;-115.352;2022-12-13T16:47:18;3.70;;;0.60;;
76393;SDS011;65216;51.090;-115.352;2022-12-13T16:49:48;4.10;;;0.60;;
76393;SDS011;65216;51.090;-115.352;2022-12-13T16:52:16;5.60;;;0.70;;
76393;SDS011;65216;51.090;-115.352;2022-12-13T16:54:45;3.50;;;0.70;;
76393;SDS011;65216;51.090;-115.352;2022-12-13T16:57:13;6.20;;;0.80;;
76393;SDS011;65216;51.090;-115.352;2022-12-13T16:59:43;2.30;;;0.50;;
76393;SDS011;65216;51.090;-115.352;2022-12-13T17:02:16;4.20;;;0.80;;
76393;SDS011;65216;51.090;-115.352;2022-12-13T17:04:43;4.90;;;0.80;;
76393;SDS011;65216;51.090;-115.352;2022-12-13T17:07:11;3.60;;;0.70;;
76393;SDS011;65216;51.090;-115.352;2022-12-13T17:09:38;11.50;;;1.00;;
76393;SDS011;65216;51.090;-115.352;2022-12-13T17:12:07;6.50;;;0.80;;
76393;SDS011;65216;51.090;-115.352;2022-12-13T17:14:35;4.00;;;0.70;;
76393;SDS011;65216;51.090;-115.352;2022-12-13T17:17:02;11.30;;;1.30;;
76393;SDS011;65216;51.090;-115.352;2022-12-13T17:19:30;1.80;;;0.70;;
76393;SDS011;65216;51.090;-115.352;2022-12-13T17:22:00;6.80;;;0.90;;
76393;SDS011;65216;51.090;-115.352;2022-12-13T17:24:29;4.60;;;0.70;;
76393;SDS011;65216;51.090;-115.352;2022-12-13T17:26:57;6.00;;;0.80;;
76393;SDS011;65216;51.090;-115.352;2022-12-13T17:29:27;4.50;;;0.90;;
76393;SDS011;65216;51.090;-115.352;2022-12-13T17:31:55;10.00;;;1.00;;
76393;SDS011;65216;51.090;-115.352;2022-12-13T17:34:22;9.30;;;0.90;;
76393;SDS011;65216;51.090;-115.352;2022-12-13T17:36:50;6.60;;;0.80;;
76393;SDS011;65216;51.090;-115.352;2022-12-13T17:39:23;7.50;;;0.80;;
76393;SDS011;65216;51.090;-115.352;2022-12-13T17:41:53;5.30;;;0.70;;
76393;SDS011;65216;51.090;-115.352;2022-12-13T17:44:21;4.90;;;0.80;;
76393;SDS011;65216;51.090;-115.352;2022-12-13T17:46:49;6.00;;;0.90;;
76393;SDS011;65216;51.090;-115.352;2022-12-13T17:49:20;4.50;;;0.90;;
76393;SDS011;65216;51.090;-115.352;2022-12-13T17:51:48;7.40;;;0.90;;
76393;SDS011;65216;51.090;-115.352;2022-12-13T17:54:22;7.30;;;1.00;;